createdAt,value
2023-03-04T00:02:15.676Z,-0.69
2023-03-04T00:04:42.288Z,-0.57
2023-03-04T00:07:08.683Z,-0.61
2023-03-04T00:09:35.249Z,-0.60
2023-03-04T00:12:01.688Z,-0.61
2023-03-04T00:14:30.600Z,-0.59
2023-03-04T00:16:57.082Z,-0.57
2023-03-04T00:19:24.057Z,-0.55
2023-03-04T00:21:50.472Z,-0.57
2023-03-04T00:24:17.305Z,-0.55
2023-03-04T00:26:43.915Z,-0.50
2023-03-04T00:29:10.308Z,-0.50
2023-03-04T00:31:36.900Z,-0.47
2023-03-04T00:34:03.375Z,-0.47
2023-03-04T00:36:29.925Z,-0.46
2023-03-04T00:38:56.459Z,-0.45
2023-03-04T00:41:22.864Z,-0.42
2023-03-04T00:43:49.254Z,-0.43
2023-03-04T00:46:16.821Z,-0.41
2023-03-04T00:48:43.200Z,-0.43
2023-03-04T00:51:09.743Z,-0.39
2023-03-04T00:53:36.849Z,-0.40
2023-03-04T00:56:03.438Z,-0.37
2023-03-04T00:58:30.464Z,-0.35
2023-03-04T01:00:56.875Z,-0.35
2023-03-04T01:03:24.448Z,-0.34
2023-03-04T01:05:50.845Z,-0.35
2023-03-04T01:08:17.622Z,-0.32
2023-03-04T01:10:44.052Z,-0.32
2023-03-04T01:13:10.723Z,-0.29
2023-03-04T01:15:37.117Z,-0.35
2023-03-04T01:18:03.562Z,-0.33
2023-03-04T01:20:30.124Z,-0.34
2023-03-04T01:22:56.507Z,-0.33
2023-03-04T01:25:23.040Z,-0.34
2023-03-04T01:27:49.458Z,-0.31
2023-03-04T01:30:15.938Z,-0.20
2023-03-04T01:32:42.346Z,-0.28
2023-03-04T01:35:09.122Z,-0.26
2023-03-04T01:37:35.546Z,-0.26
2023-03-04T01:40:02.004Z,-0.24
2023-03-04T01:42:31.707Z,-0.24
2023-03-04T01:44:58.396Z,-0.25
2023-03-04T01:47:29.119Z,-0.24
2023-03-04T01:49:57.438Z,-0.21
2023-03-04T01:52:24.713Z,-0.22
2023-03-04T01:54:51.304Z,-0.21
2023-03-04T01:57:23.836Z,-0.20
2023-03-04T02:00:19.457Z,-0.11
2023-03-04T02:02:49.935Z,-0.10
2023-03-04T02:05:16.640Z,-0.11
2023-03-04T02:07:44.281Z,-0.11
2023-03-04T02:10:12.946Z,-0.08
2023-03-04T02:12:40.366Z,-0.08
2023-03-04T02:15:08.509Z,-0.15
2023-03-04T02:17:35.326Z,-0.17
2023-03-04T02:20:07.871Z,-0.18
2023-03-04T02:22:39.280Z,-0.20
2023-03-04T02:25:17.873Z,-0.17
2023-03-04T02:27:44.824Z,-0.20
2023-03-04T02:30:20.355Z,-0.19
2023-03-04T02:32:47.002Z,-0.19
2023-03-04T02:35:17.984Z,-0.17
2023-03-04T02:37:44.469Z,0.09
2023-03-04T02:40:16.887Z,0.01
2023-03-04T02:42:46.016Z,0.01
2023-03-04T02:45:38.573Z,-0.03
2023-03-04T02:48:05.597Z,-0.02
2023-03-04T02:50:36.310Z,-0.05
2023-03-04T02:53:02.993Z,-0.10
2023-03-04T02:55:30.102Z,-0.10
2023-03-04T02:57:56.584Z,-0.09
2023-03-04T03:00:23.478Z,-0.09
2023-03-04T03:02:50.069Z,-0.09
2023-03-04T03:05:18.405Z,-0.05
2023-03-04T03:07:44.789Z,-0.01
2023-03-04T03:10:12.565Z,0.01
2023-03-04T03:12:39.084Z,0.05
2023-03-04T03:15:06.207Z,0.05
2023-03-04T03:17:33.007Z,0.06
2023-03-04T03:19:59.516Z,0.09
2023-03-04T03:22:26.036Z,0.04
2023-03-04T03:24:52.432Z,0.05
2023-03-04T03:27:19.015Z,0.02
2023-03-04T03:29:46.171Z,-0.02
2023-03-04T03:32:12.611Z,0.01
2023-03-04T03:34:39.630Z,0.03
2023-03-04T03:37:06.073Z,0.00
2023-03-04T03:39:32.928Z,0.03
2023-03-04T03:41:59.346Z,0.03
2023-03-04T03:44:26.258Z,0.07
2023-03-04T03:46:52.641Z,0.06
2023-03-04T03:49:19.152Z,0.12
2023-03-04T03:51:45.577Z,0.13
2023-03-04T03:54:12.227Z,0.08
2023-03-04T03:56:38.636Z,0.10
2023-03-04T03:59:05.169Z,0.17
2023-03-04T04:01:33.460Z,0.17
2023-03-04T04:04:00.618Z,0.17
2023-03-04T04:06:27.707Z,0.20
2023-03-04T04:08:54.242Z,0.17
2023-03-04T04:11:20.637Z,0.16
2023-03-04T04:13:47.544Z,0.16
2023-03-04T04:16:14.009Z,0.11
2023-03-04T04:18:40.530Z,0.11
2023-03-04T04:21:06.958Z,0.15
2023-03-04T04:23:33.587Z,0.19
2023-03-04T04:25:59.951Z,0.20
2023-03-04T04:28:26.600Z,0.17
2023-03-04T04:30:53.415Z,0.26
2023-03-04T04:33:20.070Z,0.25
2023-03-04T04:35:47.245Z,0.28
2023-03-04T04:38:13.969Z,0.22
2023-03-04T04:40:40.412Z,0.24
2023-03-04T04:43:06.961Z,0.22
2023-03-04T04:45:34.289Z,0.31
2023-03-04T04:48:00.758Z,0.27
2023-03-04T04:50:27.987Z,0.29
2023-03-04T04:52:54.600Z,0.32
2023-03-04T04:55:21.545Z,0.33
2023-03-04T04:57:48.104Z,0.41
2023-03-04T05:00:15.332Z,0.35
2023-03-04T05:02:41.713Z,0.34
2023-03-04T05:05:08.547Z,0.33
2023-03-04T05:07:35.003Z,0.32
2023-03-04T05:10:01.585Z,0.33
2023-03-04T05:12:28.121Z,0.36
2023-03-04T05:14:54.630Z,0.37
2023-03-04T05:17:21.086Z,0.67
2023-03-04T05:19:48.413Z,0.45
2023-03-04T05:22:16.236Z,0.41
2023-03-04T05:24:42.627Z,0.44
2023-03-04T05:27:09.616Z,0.43
2023-03-04T05:29:36.057Z,0.42
2023-03-04T05:32:03.063Z,0.35
2023-03-04T05:34:29.483Z,0.40
2023-03-04T05:36:56.067Z,0.39
2023-03-04T05:39:22.800Z,0.48
2023-03-04T05:41:49.189Z,0.37
2023-03-04T05:44:17.933Z,0.36
2023-03-04T05:46:44.368Z,0.39
2023-03-04T05:49:10.903Z,0.43
2023-03-04T05:51:37.743Z,0.58
2023-03-04T05:54:04.200Z,0.56
2023-03-04T05:56:32.072Z,0.50
2023-03-04T05:58:59.126Z,0.51
2023-03-04T06:01:26.762Z,0.58
2023-03-04T06:03:53.236Z,0.63
2023-03-04T06:06:19.921Z,0.57
2023-03-04T06:08:46.353Z,0.59
2023-03-04T06:11:12.868Z,0.57
2023-03-04T06:13:40.136Z,0.60
2023-03-04T06:16:07.142Z,0.64
2023-03-04T06:18:33.908Z,0.65
2023-03-04T06:21:02.271Z,0.69
2023-03-04T06:23:30.839Z,0.74
2023-03-04T06:25:59.507Z,0.81
2023-03-04T06:28:26.263Z,0.81
2023-03-04T06:30:53.923Z,0.79
2023-03-04T06:33:22.509Z,0.72
2023-03-04T06:35:49.474Z,0.75
2023-03-04T06:38:15.993Z,0.85
2023-03-04T06:40:42.498Z,1.02
2023-03-04T06:43:09.015Z,0.97
2023-03-04T06:45:35.938Z,0.88
2023-03-04T06:48:02.368Z,0.87
2023-03-04T06:50:28.932Z,0.85
2023-03-04T06:52:57.076Z,0.87
2023-03-04T06:55:24.254Z,0.93
2023-03-04T06:57:51.020Z,0.95
2023-03-04T07:00:18.500Z,1.00
2023-03-04T07:02:45.200Z,1.01
2023-03-04T07:05:11.914Z,1.07
2023-03-04T07:07:38.771Z,1.07
2023-03-04T07:10:06.307Z,1.05
2023-03-04T07:12:33.240Z,1.06
2023-03-04T07:14:59.647Z,1.07
2023-03-04T07:17:26.223Z,1.10
2023-03-04T07:19:52.720Z,1.17
2023-03-04T07:22:19.323Z,1.28
2023-03-04T07:24:45.720Z,1.27
2023-03-04T07:27:12.727Z,1.22
2023-03-04T07:29:39.146Z,1.33
2023-03-04T07:32:08.567Z,1.33
2023-03-04T07:34:35.066Z,1.43
2023-03-04T07:37:01.538Z,1.41
2023-03-04T07:39:30.144Z,1.46
2023-03-04T07:41:56.845Z,1.52
2023-03-04T07:44:23.520Z,1.61
2023-03-04T07:46:50.009Z,1.58
2023-03-04T07:49:16.404Z,1.61
2023-03-04T07:51:42.888Z,1.69
2023-03-04T07:54:09.656Z,1.70
2023-03-04T07:56:36.207Z,1.72
2023-03-04T07:59:02.865Z,1.76
2023-03-04T08:01:34.040Z,1.83
2023-03-04T08:04:01.829Z,1.82
2023-03-04T08:06:28.825Z,1.92
2023-03-04T08:08:58.141Z,1.86
2023-03-04T08:11:24.995Z,1.91
2023-03-04T08:13:54.311Z,1.91
2023-03-04T08:16:22.949Z,2.03
2023-03-04T08:18:53.805Z,1.99
2023-03-04T08:21:21.930Z,1.99
2023-03-04T08:23:49.815Z,2.09
2023-03-04T08:26:29.166Z,2.13
2023-03-04T08:28:57.814Z,2.14
2023-03-04T08:31:24.915Z,2.19
2023-03-04T08:33:53.852Z,2.27
2023-03-04T08:36:20.655Z,2.37
2023-03-04T08:38:47.069Z,2.40
2023-03-04T08:41:14.261Z,2.45
2023-03-04T08:43:40.813Z,2.46
2023-03-04T08:46:07.734Z,2.50
2023-03-04T08:48:36.454Z,2.49
2023-03-04T08:51:11.892Z,2.53
2023-03-04T08:53:39.338Z,2.61
2023-03-04T08:56:07.528Z,2.65
2023-03-04T08:58:34.918Z,2.58
2023-03-04T09:01:02.763Z,2.60
2023-03-04T09:03:29.738Z,2.68
2023-03-04T09:05:56.576Z,2.70
2023-03-04T09:08:23.017Z,2.79
2023-03-04T09:10:52.763Z,2.82
2023-03-04T09:13:19.469Z,2.94
2023-03-04T09:15:47.562Z,2.89
2023-03-04T09:18:15.216Z,2.90
2023-03-04T09:20:42.922Z,2.94
2023-03-04T09:23:09.664Z,3.07
2023-03-04T09:25:37.966Z,3.10
2023-03-04T09:28:05.346Z,3.16
2023-03-04T09:30:32.653Z,3.15
2023-03-04T09:32:59.126Z,3.13
2023-03-04T09:35:25.889Z,3.14
2023-03-04T09:37:52.891Z,3.23
2023-03-04T09:40:24.374Z,3.21
2023-03-04T09:42:58.268Z,3.25
2023-03-04T09:45:41.893Z,3.24
2023-03-04T09:48:13.551Z,3.26
2023-03-04T09:50:53.103Z,3.21
2023-03-04T09:53:28.728Z,3.29
2023-03-04T09:55:55.636Z,3.32
2023-03-04T09:58:28.760Z,3.42
2023-03-04T10:01:04.027Z,3.46
2023-03-04T10:03:48.880Z,3.48
2023-03-04T10:06:20.910Z,3.52
2023-03-04T10:09:11.645Z,3.61
2023-03-04T10:11:46.449Z,3.72
2023-03-04T10:14:22.269Z,3.81
2023-03-04T10:17:00.492Z,3.96
2023-03-04T10:19:52.635Z,3.92
2023-03-04T10:22:26.087Z,3.92
2023-03-04T10:24:56.329Z,3.85
2023-03-04T10:27:24.721Z,3.89
2023-03-04T10:29:52.434Z,4.16
2023-03-04T10:32:20.330Z,4.21
2023-03-04T10:34:47.512Z,4.41
2023-03-04T10:37:14.670Z,4.64
2023-03-04T10:39:43.673Z,4.58
2023-03-04T10:42:16.305Z,4.87
2023-03-04T10:44:58.011Z,4.94
2023-03-04T10:47:26.279Z,4.78
2023-03-04T10:49:58.571Z,4.60
2023-03-04T10:52:41.811Z,4.50
2023-03-04T10:55:25.969Z,4.46
2023-03-04T10:57:57.789Z,4.48
2023-03-04T11:00:36.600Z,4.46
2023-03-04T11:03:38.599Z,4.65
2023-03-04T11:06:25.439Z,4.74
2023-03-04T11:08:57.050Z,4.80
2023-03-04T11:11:29.898Z,4.85
2023-03-04T11:14:02.495Z,4.74
2023-03-04T11:16:31.437Z,4.68
2023-03-04T11:19:19.721Z,4.74
2023-03-04T11:21:48.209Z,4.77
2023-03-04T11:24:29.114Z,4.88
2023-03-04T11:27:11.811Z,4.88
2023-03-04T11:29:44.295Z,4.86
2023-03-04T11:32:26.138Z,4.96
2023-03-04T11:35:25.308Z,5.13
2023-03-04T11:38:08.820Z,5.15
2023-03-04T11:40:45.476Z,5.08
2023-03-04T11:43:25.570Z,4.90
2023-03-04T11:46:28.946Z,4.83
2023-03-04T11:49:14.523Z,4.70
2023-03-04T11:51:46.719Z,4.64
2023-03-04T11:54:40.991Z,4.63
2023-03-04T11:57:25.711Z,4.66
2023-03-04T12:00:17.092Z,4.79
2023-03-04T12:03:04.258Z,4.94
2023-03-04T12:06:08.992Z,5.07
2023-03-04T12:08:59.275Z,4.96
2023-03-04T12:11:49.093Z,4.96
2023-03-04T12:14:27.392Z,4.96
2023-03-04T12:17:04.899Z,4.94
2023-03-04T12:19:49.756Z,4.97
2023-03-04T12:22:33.818Z,4.93
2023-03-04T12:25:17.989Z,4.89
2023-03-04T12:28:52.611Z,4.92
2023-03-04T12:31:42.283Z,4.86
2023-03-04T12:34:16.193Z,4.82
2023-03-04T12:36:50.078Z,4.86
2023-03-04T12:39:27.827Z,4.81
2023-03-04T12:42:20.803Z,4.83
2023-03-04T12:45:13.112Z,4.88
2023-03-04T12:47:51.356Z,4.91
2023-03-04T12:50:27.138Z,4.97
2023-03-04T12:53:02.580Z,5.10
2023-03-04T12:55:49.625Z,5.11
2023-03-04T12:58:20.917Z,4.99
2023-03-04T13:01:06.255Z,4.88
2023-03-04T13:03:43.884Z,4.83
2023-03-04T13:06:16.315Z,4.88
2023-03-04T13:08:56.681Z,4.84
2023-03-04T13:11:26.072Z,4.85
2023-03-04T13:14:22.659Z,4.94
2023-03-04T13:16:54.131Z,4.85
2023-03-04T13:19:45.504Z,4.86
2023-03-04T13:22:30.951Z,4.83
2023-03-04T13:25:02.069Z,4.85
2023-03-04T13:27:52.490Z,4.76
2023-03-04T13:30:31.327Z,4.75
2023-03-04T13:33:13.757Z,4.76
2023-03-04T13:35:49.493Z,4.70
2023-03-04T13:38:35.012Z,4.77
2023-03-04T13:41:20.051Z,4.73
2023-03-04T13:43:56.097Z,4.84
2023-03-04T13:46:26.916Z,4.99
2023-03-04T13:48:56.215Z,5.14
2023-03-04T13:51:30.027Z,5.18
2023-03-04T13:53:59.772Z,5.25
2023-03-04T13:56:40.538Z,5.32
2023-03-04T13:59:06.886Z,5.39
2023-03-04T14:01:39.513Z,5.26
2023-03-04T14:04:17.029Z,5.31
2023-03-04T14:06:49.679Z,5.21
2023-03-04T14:09:21.877Z,5.21
2023-03-04T14:11:50.329Z,5.24
2023-03-04T14:14:23.074Z,5.28
2023-03-04T14:16:56.123Z,5.16
2023-03-04T14:19:30.334Z,5.12
2023-03-04T14:21:59.764Z,5.12
2023-03-04T14:24:27.005Z,5.21
2023-03-04T14:27:13.910Z,5.24
2023-03-04T14:29:40.899Z,5.28
2023-03-04T14:32:08.000Z,5.40
2023-03-04T14:34:38.127Z,5.48
2023-03-04T14:37:20.387Z,5.43
2023-03-04T14:39:51.026Z,5.54
2023-03-04T14:42:21.388Z,5.55
2023-03-04T14:44:50.913Z,5.43
2023-03-04T14:47:46.520Z,5.44
2023-03-04T14:50:16.130Z,5.38
2023-03-04T14:52:45.481Z,5.36
2023-03-04T14:55:15.638Z,5.32
2023-03-04T14:57:44.022Z,5.28
2023-03-04T15:00:22.614Z,5.31
2023-03-04T15:02:53.120Z,5.20
2023-03-04T15:05:36.291Z,5.23
2023-03-04T15:08:06.963Z,5.21
2023-03-04T15:10:38.048Z,5.26
2023-03-04T15:13:07.524Z,5.18
2023-03-04T15:15:37.122Z,5.24
2023-03-04T15:18:26.309Z,5.16
2023-03-04T15:20:55.281Z,5.10
2023-03-04T15:23:22.219Z,5.10
2023-03-04T15:25:57.725Z,5.04
2023-03-04T15:28:25.595Z,5.11
2023-03-04T15:30:52.771Z,5.11
2023-03-04T15:33:21.242Z,5.04
2023-03-04T15:36:02.611Z,5.00
2023-03-04T15:38:29.687Z,5.11
2023-03-04T15:40:58.478Z,5.10
2023-03-04T15:43:25.327Z,5.10
2023-03-04T15:45:52.658Z,5.14
2023-03-04T15:48:20.831Z,5.17
2023-03-04T15:50:58.315Z,5.16
2023-03-04T15:53:38.343Z,5.06
2023-03-04T15:56:08.071Z,5.14
2023-03-04T15:58:35.364Z,5.10
2023-03-04T16:01:02.121Z,5.08
2023-03-04T16:03:28.774Z,5.02
2023-03-04T16:05:56.464Z,5.07
2023-03-04T16:08:25.025Z,5.03
2023-03-04T16:10:52.968Z,5.00
2023-03-04T16:13:22.177Z,4.91
2023-03-04T16:15:49.914Z,4.87
2023-03-04T16:18:17.171Z,4.85
2023-03-04T16:20:47.462Z,4.83
2023-03-04T16:23:18.699Z,4.86
2023-03-04T16:25:47.087Z,4.94
2023-03-04T16:28:13.628Z,4.78
2023-03-04T16:30:41.372Z,4.72
2023-03-04T16:33:08.245Z,4.72
2023-03-04T16:35:36.640Z,4.69
2023-03-04T16:38:06.272Z,4.72
2023-03-04T16:40:33.089Z,4.74
2023-03-04T16:42:59.696Z,4.70
2023-03-04T16:45:30.351Z,4.66
2023-03-04T16:47:56.921Z,4.69
2023-03-04T16:50:27.219Z,4.69
2023-03-04T16:52:56.174Z,4.69
2023-03-04T16:55:28.594Z,4.64
2023-03-04T16:57:56.164Z,4.67
2023-03-04T17:00:25.277Z,4.55
2023-03-04T17:02:57.209Z,4.57
2023-03-04T17:05:26.004Z,4.53
2023-03-04T17:07:52.665Z,4.47
2023-03-04T17:10:20.240Z,4.44
2023-03-04T17:12:46.758Z,4.41
2023-03-04T17:15:15.113Z,4.39
2023-03-04T17:17:42.697Z,4.41
2023-03-04T17:20:13.009Z,4.46
2023-03-04T17:22:39.642Z,4.36
2023-03-04T17:25:06.592Z,4.36
2023-03-04T17:27:33.551Z,4.36
2023-03-04T17:29:59.993Z,4.40
2023-03-04T17:32:28.437Z,4.34
2023-03-04T17:34:55.804Z,4.33
2023-03-04T17:37:23.055Z,4.28
2023-03-04T17:39:49.432Z,4.26
2023-03-04T17:42:16.097Z,4.25
2023-03-04T17:44:42.762Z,4.28
2023-03-04T17:47:09.392Z,4.24
2023-03-04T17:49:36.229Z,4.20
2023-03-04T17:52:04.298Z,4.25
2023-03-04T17:54:30.901Z,4.21
2023-03-04T17:56:57.629Z,4.25
2023-03-04T17:59:24.649Z,4.20
2023-03-04T18:01:54.131Z,4.20
2023-03-04T18:04:21.290Z,4.19
2023-03-04T18:06:47.938Z,4.16
2023-03-04T18:09:14.560Z,4.20
2023-03-04T18:11:42.186Z,4.16
2023-03-04T18:14:08.871Z,4.11
2023-03-04T18:16:35.690Z,4.08
2023-03-04T18:19:02.650Z,4.20
2023-03-04T18:21:30.423Z,4.16
2023-03-04T18:23:57.866Z,4.19
2023-03-04T18:26:25.805Z,4.13
2023-03-04T18:28:54.415Z,4.08
2023-03-04T18:31:24.405Z,4.11
2023-03-04T18:33:52.303Z,4.11
2023-03-04T18:36:19.041Z,4.07
2023-03-04T18:38:45.977Z,4.05
2023-03-04T18:41:14.694Z,4.07
2023-03-04T18:43:41.616Z,4.07
2023-03-04T18:46:16.747Z,4.02
2023-03-04T18:48:52.029Z,4.03
2023-03-04T18:51:19.553Z,4.07
2023-03-04T18:53:46.056Z,3.99
2023-03-04T18:56:18.717Z,4.09
2023-03-04T18:58:48.971Z,4.01
2023-03-04T19:01:17.015Z,4.01
2023-03-04T19:03:44.887Z,4.08
2023-03-04T19:06:11.832Z,4.05
2023-03-04T19:08:38.503Z,4.01
2023-03-04T19:11:07.852Z,3.97
2023-03-04T19:13:34.990Z,3.94
2023-03-04T19:16:01.544Z,3.89
2023-03-04T19:18:29.317Z,3.88
2023-03-04T19:21:03.037Z,3.96
2023-03-04T19:23:31.848Z,3.99
2023-03-04T19:25:58.326Z,3.93
2023-03-04T19:28:25.077Z,3.97
2023-03-04T19:30:53.684Z,3.92
2023-03-04T19:33:20.413Z,3.86
2023-03-04T19:35:47.464Z,3.83
2023-03-04T19:38:14.015Z,3.87
2023-03-04T19:40:46.623Z,3.81
2023-03-04T19:43:14.432Z,3.80
2023-03-04T19:45:41.277Z,3.83
2023-03-04T19:48:08.838Z,3.79
2023-03-04T19:50:35.352Z,3.75
2023-03-04T19:53:01.847Z,3.72
2023-03-04T19:55:28.671Z,3.74
2023-03-04T19:57:55.059Z,3.72
2023-03-04T20:00:23.908Z,3.76
2023-03-04T20:02:50.701Z,3.71
2023-03-04T20:05:17.672Z,3.75
2023-03-04T20:07:44.126Z,3.86
2023-03-04T20:10:11.918Z,3.83
2023-03-04T20:12:38.364Z,3.77
2023-03-04T20:15:08.958Z,3.75
2023-03-04T20:17:35.591Z,3.71
2023-03-04T20:20:02.233Z,3.68
2023-03-04T20:22:29.075Z,3.66
2023-03-04T20:24:55.968Z,3.63
2023-03-04T20:27:22.467Z,3.62
2023-03-04T20:29:49.185Z,3.59
2023-03-04T20:32:16.068Z,3.56
2023-03-04T20:34:42.643Z,3.53
2023-03-04T20:37:09.262Z,3.52
2023-03-04T20:39:35.670Z,3.50
2023-03-04T20:42:04.012Z,3.51
2023-03-04T20:44:30.778Z,3.51
2023-03-04T20:46:57.515Z,3.50
2023-03-04T20:49:26.950Z,3.50
2023-03-04T20:52:00.151Z,3.66
2023-03-04T20:54:26.680Z,3.51
2023-03-04T20:56:53.070Z,3.50
2023-03-04T20:59:19.726Z,3.53
2023-03-04T21:01:47.980Z,3.56
2023-03-04T21:04:15.348Z,3.54
2023-03-04T21:06:42.939Z,3.60
2023-03-04T21:09:12.779Z,3.58
2023-03-04T21:11:41.069Z,3.61
2023-03-04T21:14:12.021Z,3.61
2023-03-04T21:16:38.761Z,3.64
2023-03-04T21:19:05.211Z,3.62
2023-03-04T21:21:31.854Z,3.66
2023-03-04T21:23:59.383Z,3.65
2023-03-04T21:26:26.098Z,3.73
2023-03-04T21:28:53.414Z,3.66
2023-03-04T21:31:26.170Z,3.63
2023-03-04T21:33:54.666Z,3.65
2023-03-04T21:36:22.600Z,3.57
2023-03-04T21:38:49.561Z,3.60
2023-03-04T21:41:19.034Z,3.59
2023-03-04T21:43:45.569Z,3.52
2023-03-04T21:46:13.742Z,3.53
2023-03-04T21:48:43.068Z,3.52
2023-03-04T21:51:14.536Z,3.47
2023-03-04T21:53:41.097Z,3.44
2023-03-04T21:56:07.640Z,3.46
2023-03-04T21:58:35.691Z,3.43
2023-03-04T22:01:10.099Z,3.41
2023-03-04T22:03:36.604Z,3.40
2023-03-04T22:06:08.143Z,3.43
2023-03-04T22:08:35.469Z,3.36
2023-03-04T22:11:11.209Z,3.37
2023-03-04T22:13:38.046Z,3.33
2023-03-04T22:16:05.830Z,3.36
2023-03-04T22:18:33.371Z,3.43
2023-03-04T22:21:02.062Z,3.43
2023-03-04T22:23:29.499Z,3.48
2023-03-04T22:25:56.385Z,3.49
2023-03-04T22:28:25.045Z,3.48
2023-03-04T22:30:51.697Z,3.41
2023-03-04T22:33:18.547Z,3.35
2023-03-04T22:35:45.030Z,3.36
2023-03-04T22:38:11.648Z,3.35
2023-03-04T22:40:38.549Z,3.45
2023-03-04T22:43:04.976Z,3.42
2023-03-04T22:45:33.192Z,3.36
2023-03-04T22:48:00.433Z,3.36
2023-03-04T22:50:27.369Z,3.31
2023-03-04T22:52:54.779Z,3.23
2023-03-04T22:55:22.569Z,3.22
2023-03-04T22:57:49.258Z,3.21
2023-03-04T23:00:25.250Z,3.23
2023-03-04T23:02:51.815Z,3.18
2023-03-04T23:05:22.316Z,3.11
2023-03-04T23:07:50.004Z,3.09
2023-03-04T23:10:25.606Z,3.11
2023-03-04T23:12:53.255Z,3.09
2023-03-04T23:15:20.769Z,3.05
2023-03-04T23:17:47.529Z,3.05
2023-03-04T23:20:17.967Z,3.09
2023-03-04T23:22:48.395Z,3.08
2023-03-04T23:25:16.790Z,3.00
2023-03-04T23:27:43.291Z,3.02
2023-03-04T23:30:14.917Z,3.02
2023-03-04T23:32:42.153Z,2.98
2023-03-04T23:35:09.249Z,2.96
2023-03-04T23:37:35.776Z,2.97
2023-03-04T23:40:02.847Z,2.93
2023-03-04T23:42:29.447Z,2.97
2023-03-04T23:44:56.541Z,2.94
2023-03-04T23:47:23.186Z,2.98
2023-03-04T23:49:49.755Z,2.98
2023-03-04T23:52:16.313Z,3.00
2023-03-04T23:54:42.896Z,3.02
2023-03-04T23:57:09.399Z,2.99
2023-03-04T23:59:38.971Z,3.06
